sensor_id;sensor_type;location;lat;lon;timestamp;temperature;humidity
12622;DHT22;6376;48.182;-1.644;2023-08-06T00:00:20;18.00;87.50
12622;DHT22;6376;48.182;-1.644;2023-08-06T00:02:47;18.00;87.40
12622;DHT22;6376;48.182;-1.644;2023-08-06T00:05:13;18.00;87.50
12622;DHT22;6376;48.182;-1.644;2023-08-06T00:07:39;18.00;87.20
12622;DHT22;6376;48.182;-1.644;2023-08-06T00:10:05;18.00;87.20
12622;DHT22;6376;48.182;-1.644;2023-08-06T00:12:30;18.00;87.30
12622;DHT22;6376;48.182;-1.644;2023-08-06T00:14:56;18.00;87.30
12622;DHT22;6376;48.182;-1.644;2023-08-06T00:17:21;18.00;87.30
12622;DHT22;6376;48.182;-1.644;2023-08-06T00:19:47;18.00;87.30
12622;DHT22;6376;48.182;-1.644;2023-08-06T00:22:13;18.00;87.40
12622;DHT22;6376;48.182;-1.644;2023-08-06T00:24:38;18.00;87.60
12622;DHT22;6376;48.182;-1.644;2023-08-06T00:27:04;18.00;87.50
12622;DHT22;6376;48.182;-1.644;2023-08-06T00:29:30;18.00;87.30
12622;DHT22;6376;48.182;-1.644;2023-08-06T00:31:56;18.00;87.50
12622;DHT22;6376;48.182;-1.644;2023-08-06T00:34:21;18.00;87.80
12622;DHT22;6376;48.182;-1.644;2023-08-06T00:36:47;18.00;87.60
12622;DHT22;6376;48.182;-1.644;2023-08-06T00:39:13;18.00;87.70
12622;DHT22;6376;48.182;-1.644;2023-08-06T00:41:39;18.00;87.50
12622;DHT22;6376;48.182;-1.644;2023-08-06T00:44:05;18.00;87.50
12622;DHT22;6376;48.182;-1.644;2023-08-06T00:46:32;18.00;87.70
12622;DHT22;6376;48.182;-1.644;2023-08-06T00:48:57;18.00;87.80
12622;DHT22;6376;48.182;-1.644;2023-08-06T00:51:24;18.00;87.70
12622;DHT22;6376;48.182;-1.644;2023-08-06T00:53:52;18.00;87.60
12622;DHT22;6376;48.182;-1.644;2023-08-06T00:56:17;18.00;87.70
12622;DHT22;6376;48.182;-1.644;2023-08-06T00:58:44;18.00;87.80
12622;DHT22;6376;48.182;-1.644;2023-08-06T01:01:10;18.00;88.60
12622;DHT22;6376;48.182;-1.644;2023-08-06T01:03:36;18.00;87.90
12622;DHT22;6376;48.182;-1.644;2023-08-06T01:06:02;17.90;87.80
12622;DHT22;6376;48.182;-1.644;2023-08-06T01:13:45;17.90;87.80
12622;DHT22;6376;48.182;-1.644;2023-08-06T01:16:15;17.90;87.90
12622;DHT22;6376;48.182;-1.644;2023-08-06T01:18:41;17.90;88.10
12622;DHT22;6376;48.182;-1.644;2023-08-06T01:21:20;17.90;88.00
12622;DHT22;6376;48.182;-1.644;2023-08-06T01:23:47;17.90;88.10
12622;DHT22;6376;48.182;-1.644;2023-08-06T01:29:09;17.90;88.30
12622;DHT22;6376;48.182;-1.644;2023-08-06T01:31:38;17.90;88.10
12622;DHT22;6376;48.182;-1.644;2023-08-06T01:34:07;17.90;88.30
12622;DHT22;6376;48.182;-1.644;2023-08-06T01:36:35;17.90;88.20
12622;DHT22;6376;48.182;-1.644;2023-08-06T01:39:01;17.90;88.30
12622;DHT22;6376;48.182;-1.644;2023-08-06T01:41:27;17.90;88.30
12622;DHT22;6376;48.182;-1.644;2023-08-06T01:43:53;17.90;88.40
12622;DHT22;6376;48.182;-1.644;2023-08-06T01:46:18;17.90;88.40
12622;DHT22;6376;48.182;-1.644;2023-08-06T01:48:44;17.90;88.30
12622;DHT22;6376;48.182;-1.644;2023-08-06T01:51:10;17.90;88.50
12622;DHT22;6376;48.182;-1.644;2023-08-06T01:53:35;17.90;88.40
12622;DHT22;6376;48.182;-1.644;2023-08-06T01:56:01;17.90;88.50
12622;DHT22;6376;48.182;-1.644;2023-08-06T01:58:27;17.80;88.50
12622;DHT22;6376;48.182;-1.644;2023-08-06T02:00:52;17.90;88.50
12622;DHT22;6376;48.182;-1.644;2023-08-06T02:03:18;17.80;88.50
12622;DHT22;6376;48.182;-1.644;2023-08-06T02:05:44;17.80;88.60
12622;DHT22;6376;48.182;-1.644;2023-08-06T02:08:11;17.80;88.60
12622;DHT22;6376;48.182;-1.644;2023-08-06T02:10:36;17.80;88.60
12622;DHT22;6376;48.182;-1.644;2023-08-06T02:13:02;17.80;88.80
12622;DHT22;6376;48.182;-1.644;2023-08-06T02:15:27;17.80;88.70
12622;DHT22;6376;48.182;-1.644;2023-08-06T02:17:53;17.80;88.70
12622;DHT22;6376;48.182;-1.644;2023-08-06T02:20:18;17.80;88.80
12622;DHT22;6376;48.182;-1.644;2023-08-06T02:22:44;17.80;88.90
12622;DHT22;6376;48.182;-1.644;2023-08-06T02:25:10;17.80;88.90
12622;DHT22;6376;48.182;-1.644;2023-08-06T02:27:36;17.80;89.00
12622;DHT22;6376;48.182;-1.644;2023-08-06T02:30:02;17.80;89.00
12622;DHT22;6376;48.182;-1.644;2023-08-06T02:32:29;17.80;89.00
12622;DHT22;6376;48.182;-1.644;2023-08-06T02:34:57;17.70;89.10
12622;DHT22;6376;48.182;-1.644;2023-08-06T02:37:22;17.70;89.00
12622;DHT22;6376;48.182;-1.644;2023-08-06T02:39:48;17.70;89.10
12622;DHT22;6376;48.182;-1.644;2023-08-06T02:42:14;17.70;89.30
12622;DHT22;6376;48.182;-1.644;2023-08-06T02:44:39;17.70;89.30
12622;DHT22;6376;48.182;-1.644;2023-08-06T02:47:05;17.70;89.30
12622;DHT22;6376;48.182;-1.644;2023-08-06T02:49:31;17.70;89.20
12622;DHT22;6376;48.182;-1.644;2023-08-06T02:51:56;17.70;89.30
12622;DHT22;6376;48.182;-1.644;2023-08-06T02:54:22;17.70;89.30
12622;DHT22;6376;48.182;-1.644;2023-08-06T02:56:48;17.70;89.40
12622;DHT22;6376;48.182;-1.644;2023-08-06T02:59:13;17.70;89.40
12622;DHT22;6376;48.182;-1.644;2023-08-06T03:01:39;17.70;89.40
12622;DHT22;6376;48.182;-1.644;2023-08-06T03:04:05;17.70;89.50
12622;DHT22;6376;48.182;-1.644;2023-08-06T03:06:31;17.70;89.50
12622;DHT22;6376;48.182;-1.644;2023-08-06T03:08:57;17.70;90.00
12622;DHT22;6376;48.182;-1.644;2023-08-06T03:11:22;17.70;89.60
12622;DHT22;6376;48.182;-1.644;2023-08-06T03:13:48;17.70;89.60
12622;DHT22;6376;48.182;-1.644;2023-08-06T03:16:14;17.60;89.70
12622;DHT22;6376;48.182;-1.644;2023-08-06T03:18:40;17.60;89.70
12622;DHT22;6376;48.182;-1.644;2023-08-06T03:21:06;17.60;89.80
12622;DHT22;6376;48.182;-1.644;2023-08-06T03:23:31;17.60;89.90
12622;DHT22;6376;48.182;-1.644;2023-08-06T03:26:06;17.60;89.90
12622;DHT22;6376;48.182;-1.644;2023-08-06T03:28:32;17.60;90.00
12622;DHT22;6376;48.182;-1.644;2023-08-06T03:31:01;17.60;90.00
12622;DHT22;6376;48.182;-1.644;2023-08-06T03:33:27;17.60;90.00
12622;DHT22;6376;48.182;-1.644;2023-08-06T03:35:53;17.60;90.00
12622;DHT22;6376;48.182;-1.644;2023-08-06T03:38:18;17.60;90.00
12622;DHT22;6376;48.182;-1.644;2023-08-06T03:40:44;17.60;90.00
12622;DHT22;6376;48.182;-1.644;2023-08-06T03:43:11;17.60;90.00
12622;DHT22;6376;48.182;-1.644;2023-08-06T03:45:36;17.60;90.00
12622;DHT22;6376;48.182;-1.644;2023-08-06T03:48:02;17.60;90.00
12622;DHT22;6376;48.182;-1.644;2023-08-06T03:50:28;17.50;90.00
12622;DHT22;6376;48.182;-1.644;2023-08-06T03:52:53;17.50;90.00
12622;DHT22;6376;48.182;-1.644;2023-08-06T03:55:19;17.50;90.00
12622;DHT22;6376;48.182;-1.644;2023-08-06T03:57:44;17.50;90.00
12622;DHT22;6376;48.182;-1.644;2023-08-06T04:00:10;17.50;90.00
12622;DHT22;6376;48.182;-1.644;2023-08-06T04:02:36;17.50;90.00
12622;DHT22;6376;48.182;-1.644;2023-08-06T04:05:02;17.50;90.10
12622;DHT22;6376;48.182;-1.644;2023-08-06T04:07:28;17.50;90.10
12622;DHT22;6376;48.182;-1.644;2023-08-06T04:10:01;17.50;90.10
12622;DHT22;6376;48.182;-1.644;2023-08-06T04:12:28;17.50;90.10
12622;DHT22;6376;48.182;-1.644;2023-08-06T04:14:54;17.50;90.10
12622;DHT22;6376;48.182;-1.644;2023-08-06T04:17:20;17.50;90.10
12622;DHT22;6376;48.182;-1.644;2023-08-06T04:19:51;17.50;90.10
12622;DHT22;6376;48.182;-1.644;2023-08-06T04:22:18;17.50;90.20
12622;DHT22;6376;48.182;-1.644;2023-08-06T04:24:44;17.50;90.20
12622;DHT22;6376;48.182;-1.644;2023-08-06T04:27:10;17.50;90.20
12622;DHT22;6376;48.182;-1.644;2023-08-06T04:29:36;17.50;90.20
12622;DHT22;6376;48.182;-1.644;2023-08-06T04:32:05;17.50;90.20
12622;DHT22;6376;48.182;-1.644;2023-08-06T04:34:30;17.50;90.20
12622;DHT22;6376;48.182;-1.644;2023-08-06T04:36:56;17.50;90.20
12622;DHT22;6376;48.182;-1.644;2023-08-06T04:39:22;17.50;90.30
12622;DHT22;6376;48.182;-1.644;2023-08-06T04:41:47;17.50;90.30
12622;DHT22;6376;48.182;-1.644;2023-08-06T04:44:13;17.50;90.30
12622;DHT22;6376;48.182;-1.644;2023-08-06T04:46:38;17.50;90.20
12622;DHT22;6376;48.182;-1.644;2023-08-06T04:49:04;17.50;90.30
12622;DHT22;6376;48.182;-1.644;2023-08-06T04:51:30;17.50;90.30
12622;DHT22;6376;48.182;-1.644;2023-08-06T04:53:57;17.50;90.30
12622;DHT22;6376;48.182;-1.644;2023-08-06T04:56:22;17.50;90.30
12622;DHT22;6376;48.182;-1.644;2023-08-06T04:58:48;17.40;90.30
12622;DHT22;6376;48.182;-1.644;2023-08-06T05:01:14;17.40;90.30
12622;DHT22;6376;48.182;-1.644;2023-08-06T05:03:40;17.40;90.30
12622;DHT22;6376;48.182;-1.644;2023-08-06T05:06:05;17.40;90.30
12622;DHT22;6376;48.182;-1.644;2023-08-06T05:08:31;17.40;90.30
12622;DHT22;6376;48.182;-1.644;2023-08-06T05:10:56;17.40;90.30
12622;DHT22;6376;48.182;-1.644;2023-08-06T05:13:22;17.40;90.30
12622;DHT22;6376;48.182;-1.644;2023-08-06T05:15:48;17.40;90.30
12622;DHT22;6376;48.182;-1.644;2023-08-06T05:18:13;17.40;90.40
12622;DHT22;6376;48.182;-1.644;2023-08-06T05:20:42;17.40;90.40
12622;DHT22;6376;48.182;-1.644;2023-08-06T05:23:08;17.40;90.40
12622;DHT22;6376;48.182;-1.644;2023-08-06T05:25:37;17.40;90.40
12622;DHT22;6376;48.182;-1.644;2023-08-06T05:28:03;17.40;90.40
12622;DHT22;6376;48.182;-1.644;2023-08-06T05:30:29;17.40;90.30
12622;DHT22;6376;48.182;-1.644;2023-08-06T05:32:55;17.40;90.40
12622;DHT22;6376;48.182;-1.644;2023-08-06T05:35:21;17.40;90.30
12622;DHT22;6376;48.182;-1.644;2023-08-06T05:37:47;17.40;90.40
12622;DHT22;6376;48.182;-1.644;2023-08-06T05:40:13;17.40;90.40
12622;DHT22;6376;48.182;-1.644;2023-08-06T05:42:40;17.40;90.30
12622;DHT22;6376;48.182;-1.644;2023-08-06T05:45:06;17.40;90.40
12622;DHT22;6376;48.182;-1.644;2023-08-06T05:47:32;17.40;90.40
12622;DHT22;6376;48.182;-1.644;2023-08-06T05:49:58;17.40;90.40
12622;DHT22;6376;48.182;-1.644;2023-08-06T05:52:23;17.40;90.40
12622;DHT22;6376;48.182;-1.644;2023-08-06T05:54:49;17.40;90.40
12622;DHT22;6376;48.182;-1.644;2023-08-06T05:57:15;17.40;90.40
12622;DHT22;6376;48.182;-1.644;2023-08-06T05:59:41;17.40;90.40
12622;DHT22;6376;48.182;-1.644;2023-08-06T06:02:07;17.40;90.40
12622;DHT22;6376;48.182;-1.644;2023-08-06T06:04:33;17.40;90.40
12622;DHT22;6376;48.182;-1.644;2023-08-06T06:06:59;17.40;90.40
12622;DHT22;6376;48.182;-1.644;2023-08-06T06:09:25;17.40;90.40
12622;DHT22;6376;48.182;-1.644;2023-08-06T06:11:50;17.40;90.40
12622;DHT22;6376;48.182;-1.644;2023-08-06T06:14:20;17.40;90.40
12622;DHT22;6376;48.182;-1.644;2023-08-06T06:16:45;17.40;90.40
12622;DHT22;6376;48.182;-1.644;2023-08-06T06:19:12;17.40;90.30
12622;DHT22;6376;48.182;-1.644;2023-08-06T06:21:37;17.40;90.40
12622;DHT22;6376;48.182;-1.644;2023-08-06T06:24:04;17.40;90.40
12622;DHT22;6376;48.182;-1.644;2023-08-06T06:26:31;17.40;90.40
12622;DHT22;6376;48.182;-1.644;2023-08-06T06:28:57;17.40;90.40
12622;DHT22;6376;48.182;-1.644;2023-08-06T06:31:23;17.40;90.30
12622;DHT22;6376;48.182;-1.644;2023-08-06T06:33:48;17.40;90.30
12622;DHT22;6376;48.182;-1.644;2023-08-06T06:36:14;17.50;90.30
12622;DHT22;6376;48.182;-1.644;2023-08-06T06:38:40;17.50;90.20
12622;DHT22;6376;48.182;-1.644;2023-08-06T06:41:06;17.50;90.20
12622;DHT22;6376;48.182;-1.644;2023-08-06T06:43:32;17.50;90.20
12622;DHT22;6376;48.182;-1.644;2023-08-06T06:45:59;17.50;90.30
12622;DHT22;6376;48.182;-1.644;2023-08-06T06:48:29;17.50;90.30
12622;DHT22;6376;48.182;-1.644;2023-08-06T06:50:55;17.50;90.20
12622;DHT22;6376;48.182;-1.644;2023-08-06T06:53:21;17.50;90.20
12622;DHT22;6376;48.182;-1.644;2023-08-06T06:56:02;17.60;90.20
12622;DHT22;6376;48.182;-1.644;2023-08-06T06:58:28;17.60;90.10
12622;DHT22;6376;48.182;-1.644;2023-08-06T07:00:54;17.50;90.10
12622;DHT22;6376;48.182;-1.644;2023-08-06T07:03:22;17.50;90.20
12622;DHT22;6376;48.182;-1.644;2023-08-06T07:05:49;17.60;90.20
12622;DHT22;6376;48.182;-1.644;2023-08-06T07:08:15;17.50;90.10
12622;DHT22;6376;48.182;-1.644;2023-08-06T07:10:41;17.60;90.20
12622;DHT22;6376;48.182;-1.644;2023-08-06T07:13:07;17.60;90.20
12622;DHT22;6376;48.182;-1.644;2023-08-06T07:15:33;17.60;90.10
12622;DHT22;6376;48.182;-1.644;2023-08-06T07:17:59;17.60;90.20
12622;DHT22;6376;48.182;-1.644;2023-08-06T07:20:24;17.60;90.10
12622;DHT22;6376;48.182;-1.644;2023-08-06T07:22:50;17.60;90.20
12622;DHT22;6376;48.182;-1.644;2023-08-06T07:25:16;17.60;90.20
12622;DHT22;6376;48.182;-1.644;2023-08-06T07:27:42;17.60;90.10
12622;DHT22;6376;48.182;-1.644;2023-08-06T07:30:08;17.60;90.10
12622;DHT22;6376;48.182;-1.644;2023-08-06T07:32:34;17.60;90.10
12622;DHT22;6376;48.182;-1.644;2023-08-06T07:34:59;17.60;90.20
12622;DHT22;6376;48.182;-1.644;2023-08-06T07:37:26;17.60;90.10
12622;DHT22;6376;48.182;-1.644;2023-08-06T07:39:55;17.60;90.10
12622;DHT22;6376;48.182;-1.644;2023-08-06T07:42:21;17.70;90.10
12622;DHT22;6376;48.182;-1.644;2023-08-06T07:44:54;17.70;90.10
12622;DHT22;6376;48.182;-1.644;2023-08-06T07:47:21;17.70;90.00
12622;DHT22;6376;48.182;-1.644;2023-08-06T07:49:46;17.80;90.00
12622;DHT22;6376;48.182;-1.644;2023-08-06T07:52:12;17.90;89.60
12622;DHT22;6376;48.182;-1.644;2023-08-06T07:54:38;18.00;89.30
12622;DHT22;6376;48.182;-1.644;2023-08-06T07:57:04;18.10;88.70
12622;DHT22;6376;48.182;-1.644;2023-08-06T07:59:29;18.20;88.30
12622;DHT22;6376;48.182;-1.644;2023-08-06T08:01:56;18.30;87.70
12622;DHT22;6376;48.182;-1.644;2023-08-06T08:04:21;18.40;87.30
12622;DHT22;6376;48.182;-1.644;2023-08-06T08:06:47;18.40;87.30
12622;DHT22;6376;48.182;-1.644;2023-08-06T08:09:13;18.30;87.50
12622;DHT22;6376;48.182;-1.644;2023-08-06T08:11:39;18.20;87.80
12622;DHT22;6376;48.182;-1.644;2023-08-06T08:14:05;18.20;87.80
12622;DHT22;6376;48.182;-1.644;2023-08-06T08:16:31;18.30;87.50
12622;DHT22;6376;48.182;-1.644;2023-08-06T08:18:57;18.30;87.50
12622;DHT22;6376;48.182;-1.644;2023-08-06T08:21:23;18.30;87.80
12622;DHT22;6376;48.182;-1.644;2023-08-06T08:23:50;18.30;87.50
12622;DHT22;6376;48.182;-1.644;2023-08-06T08:26:16;18.40;86.90
12622;DHT22;6376;48.182;-1.644;2023-08-06T08:28:41;18.40;87.20
12622;DHT22;6376;48.182;-1.644;2023-08-06T08:31:11;18.30;87.40
12622;DHT22;6376;48.182;-1.644;2023-08-06T08:33:40;18.30;87.60
12622;DHT22;6376;48.182;-1.644;2023-08-06T08:36:06;18.40;87.20
12622;DHT22;6376;48.182;-1.644;2023-08-06T08:38:31;18.70;86.60
12622;DHT22;6376;48.182;-1.644;2023-08-06T08:40:57;18.90;85.10
12622;DHT22;6376;48.182;-1.644;2023-08-06T08:43:23;19.00;84.20
12622;DHT22;6376;48.182;-1.644;2023-08-06T08:45:53;19.10;83.70
12622;DHT22;6376;48.182;-1.644;2023-08-06T08:48:24;18.90;84.40
12622;DHT22;6376;48.182;-1.644;2023-08-06T08:50:51;18.80;85.00
12622;DHT22;6376;48.182;-1.644;2023-08-06T08:53:17;18.70;85.50
12622;DHT22;6376;48.182;-1.644;2023-08-06T08:55:46;18.70;85.80
12622;DHT22;6376;48.182;-1.644;2023-08-06T08:58:12;18.60;85.80
12622;DHT22;6376;48.182;-1.644;2023-08-06T09:00:39;18.60;86.00
12622;DHT22;6376;48.182;-1.644;2023-08-06T09:03:06;18.70;85.80
12622;DHT22;6376;48.182;-1.644;2023-08-06T09:05:33;18.70;85.40
12622;DHT22;6376;48.182;-1.644;2023-08-06T09:08:03;18.70;85.40
12622;DHT22;6376;48.182;-1.644;2023-08-06T09:10:30;18.80;84.80
12622;DHT22;6376;48.182;-1.644;2023-08-06T09:12:56;18.90;84.20
12622;DHT22;6376;48.182;-1.644;2023-08-06T09:15:27;19.00;83.90
12622;DHT22;6376;48.182;-1.644;2023-08-06T09:17:53;19.30;82.50
12622;DHT22;6376;48.182;-1.644;2023-08-06T09:20:19;19.80;80.20
12622;DHT22;6376;48.182;-1.644;2023-08-06T09:22:45;20.10;78.30
12622;DHT22;6376;48.182;-1.644;2023-08-06T09:25:11;20.30;77.30
12622;DHT22;6376;48.182;-1.644;2023-08-06T09:27:39;20.30;77.20
12622;DHT22;6376;48.182;-1.644;2023-08-06T09:30:06;20.20;77.20
12622;DHT22;6376;48.182;-1.644;2023-08-06T09:32:49;19.70;79.90
12622;DHT22;6376;48.182;-1.644;2023-08-06T09:35:17;20.00;78.60
12622;DHT22;6376;48.182;-1.644;2023-08-06T09:37:44;19.50;80.40
12622;DHT22;6376;48.182;-1.644;2023-08-06T09:40:30;19.20;82.20
12622;DHT22;6376;48.182;-1.644;2023-08-06T09:42:57;19.00;83.40
12622;DHT22;6376;48.182;-1.644;2023-08-06T09:45:23;18.90;84.10
12622;DHT22;6376;48.182;-1.644;2023-08-06T09:47:57;18.80;84.40
12622;DHT22;6376;48.182;-1.644;2023-08-06T09:50:23;18.90;84.20
12622;DHT22;6376;48.182;-1.644;2023-08-06T09:52:52;19.30;82.30
12622;DHT22;6376;48.182;-1.644;2023-08-06T09:55:18;19.60;80.30
12622;DHT22;6376;48.182;-1.644;2023-08-06T09:57:45;19.90;79.20
12622;DHT22;6376;48.182;-1.644;2023-08-06T10:00:12;20.00;78.10
12622;DHT22;6376;48.182;-1.644;2023-08-06T10:02:38;20.80;74.60
12622;DHT22;6376;48.182;-1.644;2023-08-06T10:05:05;20.80;74.40
12622;DHT22;6376;48.182;-1.644;2023-08-06T10:07:31;20.00;78.20
12622;DHT22;6376;48.182;-1.644;2023-08-06T10:09:58;19.60;80.40
12622;DHT22;6376;48.182;-1.644;2023-08-06T10:12:24;19.80;79.50
12622;DHT22;6376;48.182;-1.644;2023-08-06T10:14:53;20.00;78.30
12622;DHT22;6376;48.182;-1.644;2023-08-06T10:17:23;19.70;79.80
12622;DHT22;6376;48.182;-1.644;2023-08-06T10:19:50;19.40;81.10
12622;DHT22;6376;48.182;-1.644;2023-08-06T10:22:17;19.20;82.10
12622;DHT22;6376;48.182;-1.644;2023-08-06T10:27:29;19.10;83.00
12622;DHT22;6376;48.182;-1.644;2023-08-06T10:30:09;19.20;83.10
12622;DHT22;6376;48.182;-1.644;2023-08-06T10:33:02;19.30;82.10
12622;DHT22;6376;48.182;-1.644;2023-08-06T10:35:32;19.40;81.70
12622;DHT22;6376;48.182;-1.644;2023-08-06T10:40:33;19.50;81.50
12622;DHT22;6376;48.182;-1.644;2023-08-06T10:43:00;19.80;80.40
12622;DHT22;6376;48.182;-1.644;2023-08-06T10:45:26;19.90;79.90
12622;DHT22;6376;48.182;-1.644;2023-08-06T10:47:54;19.70;80.00
12622;DHT22;6376;48.182;-1.644;2023-08-06T10:50:24;19.70;80.60
12622;DHT22;6376;48.182;-1.644;2023-08-06T10:52:50;19.80;80.20
12622;DHT22;6376;48.182;-1.644;2023-08-06T10:55:27;19.60;80.40
12622;DHT22;6376;48.182;-1.644;2023-08-06T10:57:53;19.50;81.30
12622;DHT22;6376;48.182;-1.644;2023-08-06T11:00:21;19.40;81.90
12622;DHT22;6376;48.182;-1.644;2023-08-06T11:02:47;19.30;82.40
12622;DHT22;6376;48.182;-1.644;2023-08-06T11:05:14;19.20;82.60
12622;DHT22;6376;48.182;-1.644;2023-08-06T11:07:40;19.20;82.80
12622;DHT22;6376;48.182;-1.644;2023-08-06T11:10:07;19.20;83.10
12622;DHT22;6376;48.182;-1.644;2023-08-06T11:12:34;19.10;83.20
12622;DHT22;6376;48.182;-1.644;2023-08-06T11:15:00;19.20;82.70
12622;DHT22;6376;48.182;-1.644;2023-08-06T11:17:31;19.30;82.50
12622;DHT22;6376;48.182;-1.644;2023-08-06T11:19:59;19.20;82.80
12622;DHT22;6376;48.182;-1.644;2023-08-06T11:22:25;19.20;82.70
12622;DHT22;6376;48.182;-1.644;2023-08-06T11:24:50;19.20;82.80
12622;DHT22;6376;48.182;-1.644;2023-08-06T11:27:17;19.20;83.00
12622;DHT22;6376;48.182;-1.644;2023-08-06T11:29:44;19.20;82.90
12622;DHT22;6376;48.182;-1.644;2023-08-06T11:32:10;19.20;82.80
12622;DHT22;6376;48.182;-1.644;2023-08-06T11:34:37;19.20;82.90
12622;DHT22;6376;48.182;-1.644;2023-08-06T11:37:06;19.30;82.80
12622;DHT22;6376;48.182;-1.644;2023-08-06T11:39:36;19.20;82.60
12622;DHT22;6376;48.182;-1.644;2023-08-06T11:42:05;19.20;82.80
12622;DHT22;6376;48.182;-1.644;2023-08-06T11:44:33;19.30;82.70
12622;DHT22;6376;48.182;-1.644;2023-08-06T11:47:00;19.20;82.70
12622;DHT22;6376;48.182;-1.644;2023-08-06T11:52:25;19.20;82.80
12622;DHT22;6376;48.182;-1.644;2023-08-06T11:55:11;19.30;82.70
12622;DHT22;6376;48.182;-1.644;2023-08-06T11:57:43;19.30;82.30
12622;DHT22;6376;48.182;-1.644;2023-08-06T12:00:11;19.30;82.40
12622;DHT22;6376;48.182;-1.644;2023-08-06T12:02:39;19.30;82.70
12622;DHT22;6376;48.182;-1.644;2023-08-06T12:05:16;19.20;82.80
12622;DHT22;6376;48.182;-1.644;2023-08-06T12:07:44;19.20;83.10
12622;DHT22;6376;48.182;-1.644;2023-08-06T12:10:11;19.10;83.30
12622;DHT22;6376;48.182;-1.644;2023-08-06T12:12:37;19.10;83.20
12622;DHT22;6376;48.182;-1.644;2023-08-06T12:15:04;19.10;83.20
12622;DHT22;6376;48.182;-1.644;2023-08-06T12:17:31;19.10;83.40
12622;DHT22;6376;48.182;-1.644;2023-08-06T12:19:57;19.30;82.90
12622;DHT22;6376;48.182;-1.644;2023-08-06T12:22:23;19.40;82.10
12622;DHT22;6376;48.182;-1.644;2023-08-06T12:24:48;19.40;82.20
12622;DHT22;6376;48.182;-1.644;2023-08-06T12:27:14;19.30;82.40
12622;DHT22;6376;48.182;-1.644;2023-08-06T12:29:47;19.30;82.50
12622;DHT22;6376;48.182;-1.644;2023-08-06T12:32:14;19.30;82.50
12622;DHT22;6376;48.182;-1.644;2023-08-06T12:34:40;19.40;82.30
12622;DHT22;6376;48.182;-1.644;2023-08-06T12:37:07;19.50;81.60
12622;DHT22;6376;48.182;-1.644;2023-08-06T12:39:33;19.50;81.50
12622;DHT22;6376;48.182;-1.644;2023-08-06T12:42:00;19.40;81.70
12622;DHT22;6376;48.182;-1.644;2023-08-06T12:44:26;19.40;82.10
12622;DHT22;6376;48.182;-1.644;2023-08-06T12:46:53;19.40;82.00
12622;DHT22;6376;48.182;-1.644;2023-08-06T12:49:19;19.50;81.90
12622;DHT22;6376;48.182;-1.644;2023-08-06T12:51:47;19.60;81.50
12622;DHT22;6376;48.182;-1.644;2023-08-06T12:54:12;19.60;81.00
12622;DHT22;6376;48.182;-1.644;2023-08-06T12:56:38;19.60;80.90
12622;DHT22;6376;48.182;-1.644;2023-08-06T12:59:03;19.70;80.80
12622;DHT22;6376;48.182;-1.644;2023-08-06T13:01:29;19.70;80.70
12622;DHT22;6376;48.182;-1.644;2023-08-06T13:03:55;19.70;80.90
12622;DHT22;6376;48.182;-1.644;2023-08-06T13:06:20;19.50;81.20
12622;DHT22;6376;48.182;-1.644;2023-08-06T13:08:46;19.50;82.20
12622;DHT22;6376;48.182;-1.644;2023-08-06T13:11:11;19.50;81.60
12622;DHT22;6376;48.182;-1.644;2023-08-06T13:13:37;19.50;81.80
12622;DHT22;6376;48.182;-1.644;2023-08-06T13:16:03;19.40;81.80
12622;DHT22;6376;48.182;-1.644;2023-08-06T13:18:28;19.40;82.00
12622;DHT22;6376;48.182;-1.644;2023-08-06T13:20:54;19.40;82.00
12622;DHT22;6376;48.182;-1.644;2023-08-06T13:23:20;19.40;81.90
12622;DHT22;6376;48.182;-1.644;2023-08-06T13:25:46;19.40;81.90
12622;DHT22;6376;48.182;-1.644;2023-08-06T13:28:12;19.40;81.90
12622;DHT22;6376;48.182;-1.644;2023-08-06T13:30:39;19.40;82.00
12622;DHT22;6376;48.182;-1.644;2023-08-06T13:33:10;19.40;82.10
12622;DHT22;6376;48.182;-1.644;2023-08-06T13:35:36;19.40;82.10
12622;DHT22;6376;48.182;-1.644;2023-08-06T13:38:01;19.40;82.00
12622;DHT22;6376;48.182;-1.644;2023-08-06T13:40:29;19.40;82.10
12622;DHT22;6376;48.182;-1.644;2023-08-06T13:42:55;19.40;81.90
12622;DHT22;6376;48.182;-1.644;2023-08-06T13:45:21;19.40;82.10
12622;DHT22;6376;48.182;-1.644;2023-08-06T13:47:47;19.40;82.20
12622;DHT22;6376;48.182;-1.644;2023-08-06T13:50:13;19.40;82.10
12622;DHT22;6376;48.182;-1.644;2023-08-06T13:52:39;19.40;82.00
12622;DHT22;6376;48.182;-1.644;2023-08-06T13:55:05;19.40;82.20
12622;DHT22;6376;48.182;-1.644;2023-08-06T13:57:31;19.30;82.30
12622;DHT22;6376;48.182;-1.644;2023-08-06T13:59:57;19.30;82.40
12622;DHT22;6376;48.182;-1.644;2023-08-06T14:02:23;19.30;82.30
12622;DHT22;6376;48.182;-1.644;2023-08-06T14:04:48;19.40;82.40
12622;DHT22;6376;48.182;-1.644;2023-08-06T14:07:14;19.40;82.20
12622;DHT22;6376;48.182;-1.644;2023-08-06T14:09:40;19.40;82.20
12622;DHT22;6376;48.182;-1.644;2023-08-06T14:12:07;19.40;82.20
12622;DHT22;6376;48.182;-1.644;2023-08-06T14:14:33;19.40;82.20
12622;DHT22;6376;48.182;-1.644;2023-08-06T14:16:59;19.40;82.20
12622;DHT22;6376;48.182;-1.644;2023-08-06T14:19:24;19.30;82.40
12622;DHT22;6376;48.182;-1.644;2023-08-06T14:21:50;19.30;82.50
12622;DHT22;6376;48.182;-1.644;2023-08-06T14:24:16;19.30;82.50
12622;DHT22;6376;48.182;-1.644;2023-08-06T14:26:41;19.30;82.50
12622;DHT22;6376;48.182;-1.644;2023-08-06T14:29:07;19.30;82.40
12622;DHT22;6376;48.182;-1.644;2023-08-06T14:31:33;19.30;82.40
12622;DHT22;6376;48.182;-1.644;2023-08-06T14:33:58;19.40;82.40
12622;DHT22;6376;48.182;-1.644;2023-08-06T14:36:24;19.30;82.40
12622;DHT22;6376;48.182;-1.644;2023-08-06T14:38:49;19.40;82.50
12622;DHT22;6376;48.182;-1.644;2023-08-06T14:41:15;19.40;82.20
12622;DHT22;6376;48.182;-1.644;2023-08-06T14:43:42;19.40;82.20
12622;DHT22;6376;48.182;-1.644;2023-08-06T14:46:07;19.40;82.20
12622;DHT22;6376;48.182;-1.644;2023-08-06T14:48:33;19.40;82.20
12622;DHT22;6376;48.182;-1.644;2023-08-06T14:50:58;19.40;82.20
12622;DHT22;6376;48.182;-1.644;2023-08-06T14:53:24;19.30;82.40
12622;DHT22;6376;48.182;-1.644;2023-08-06T14:55:50;19.30;82.40
12622;DHT22;6376;48.182;-1.644;2023-08-06T14:58:15;19.30;82.40
12622;DHT22;6376;48.182;-1.644;2023-08-06T15:00:41;19.30;82.20
12622;DHT22;6376;48.182;-1.644;2023-08-06T15:03:07;19.30;82.30
12622;DHT22;6376;48.182;-1.644;2023-08-06T15:05:32;19.30;82.40
12622;DHT22;6376;48.182;-1.644;2023-08-06T15:07:59;19.30;82.10
12622;DHT22;6376;48.182;-1.644;2023-08-06T15:10:24;19.40;82.00
12622;DHT22;6376;48.182;-1.644;2023-08-06T15:12:50;19.30;81.90
12622;DHT22;6376;48.182;-1.644;2023-08-06T15:15:16;19.30;81.90
12622;DHT22;6376;48.182;-1.644;2023-08-06T15:17:42;19.30;82.00
12622;DHT22;6376;48.182;-1.644;2023-08-06T15:20:08;19.30;81.90
12622;DHT22;6376;48.182;-1.644;2023-08-06T15:22:33;19.30;81.90
12622;DHT22;6376;48.182;-1.644;2023-08-06T15:25:00;19.30;82.10
12622;DHT22;6376;48.182;-1.644;2023-08-06T15:27:26;19.30;82.30
12622;DHT22;6376;48.182;-1.644;2023-08-06T15:29:52;19.30;82.30
12622;DHT22;6376;48.182;-1.644;2023-08-06T15:32:18;19.30;82.40
12622;DHT22;6376;48.182;-1.644;2023-08-06T15:34:44;19.20;82.40
12622;DHT22;6376;48.182;-1.644;2023-08-06T15:37:09;19.20;82.50
12622;DHT22;6376;48.182;-1.644;2023-08-06T15:39:36;19.20;82.50
12622;DHT22;6376;48.182;-1.644;2023-08-06T15:42:02;19.20;82.30